Hamnavoe — VSTY7 — position and weather

sailwx.info

Track history (hours):
 
Tides and Currents Weather Stations Pressure Air Temp Water Temp Dewpoint Dewpoint Depression Visibility Wind Speed Wind Dir Waves Ship Positions

Hamnavoe

Operator: NorthLink Orkey & Shetland Ferries Ltd

Last reported at 2018-May-26 09:59 UTC. Time now 2018-May-26 10:05 UTC.
Position N 58°57' W 003°17'.

Length 112 m; draft 4.2 m.

Type: Ship. MMSI: 235449000.

Date/timePositionNaut miles runAvg speedWind from/ knotsBaromVisibWave heightAir tempDewpointWater temp
2018-May-26 09:59N 58°57' W 003°17'0 0.0
2018-May-26 09:00N 58°57' W 003°17'915.5
2018-May-26 08:25N 58°50' W 003°28'14 9.2
2018-May-26 06:56N 58°37' W 003°32'818.5
2018-May-26 06:30N 58°44' W 003°30'15 1.3
2018-May-25 19:16N 58°57' W 003°18'514.1
2018-May-25 18:57N 58°55' W 003°26'19 9.9
2018-May-25 17:01N 58°37' W 003°32'0 6.4
2018-May-25 17:00N 58°37' W 003°32'1219.2
2018-May-25 16:22N 58°49' W 003°29'917.6
2018-May-25 15:50N 58°57' W 003°19'1 0.5
2018-May-25 13:33N 58°58' W 003°18'1 9.5
2018-May-25 13:29N 58°57' W 003°17'914.8
2018-May-25 12:53N 58°50' W 003°28'14 8.6
2018-May-25 11:17N 58°37' W 003°32'518.5
2018-May-25 11:01N 58°42' W 003°30'1617.2
2018-May-25 10:05N 58°57' W 003°20'116.4
2018-May-25 10:00N 58°57' W 003°17'0 0.5
2018-May-25 09:08N 58°58' W 003°18'1 6.9
2018-May-25 09:00N 58°57' W 003°19'18 7.8
2018-May-25 06:41N 58°40' W 003°31'519.3
2018-May-25 06:27N 58°44' W 003°30'1417.6
2018-May-25 05:40N 58°57' W 003°19'1 0.1
2018-May-24 19:19N 58°58' W 003°18'513.5
2018-May-24 18:57N 58°55' W 003°26'1118.8
2018-May-24 18:20N 58°44' W 003°29'619.0
2018-May-24 18:00N 58°37' W 003°31'1 1.9
2018-May-24 17:30N 58°37' W 003°32'3 5.5
2018-May-24 16:54N 58°40' W 003°31'819.1
2018-May-24 16:30N 58°48' W 003°29'917.9
2018-May-24 15:59N 58°56' W 003°23'3 1.3
2018-May-24 13:37N 58°58' W 003°18'413.4
2018-May-24 13:19N 58°56' W 003°25'4 0.9
2018-May-24 08:59N 58°57' W 003°17'914.5
2018-May-24 08:23N 58°50' W 003°28'1414.1
2018-May-24 07:23N 58°37' W 003°32'0 0.2
2018-May-24 06:53N 58°37' W 003°32'1217.8
2018-May-24 06:11N 58°49' W 003°29'619.0
2018-May-24 05:53N 58°54' W 003°27'614.8
2018-May-24 05:30N 58°57' W 003°18'0 0.0
2018-May-23 19:24N 58°58' W 003°18'22 9.7
2018-May-23 17:06N 58°37' W 003°32'316.7
2018-May-23 16:55N 58°40' W 003°31'1817.2
2018-May-23 15:52N 58°57' W 003°19'1 0.4
2018-May-23 13:30N 58°58' W 003°18'914.6
2018-May-23 12:52N 58°50' W 003°28'9 5.3
2018-May-23 11:07N 58°41' W 003°31'219.7
2018-May-23 11:00N 58°43' W 003°30'1516.6
2018-May-23 10:06N 58°57' W 003°18'1 7.8
2018-May-23 10:00N 58°58' W 003°18'0 0.0
2018-May-23 08:58N 58°58' W 003°18'17 7.2
2018-May-23 06:33N 58°41' W 003°31'119.3
2018-May-23 06:30N 58°43' W 003°30'1219.2
2018-May-23 05:52N 58°54' W 003°27'515.0
2018-May-23 05:30N 58°57' W 003°18'0 0.0
2018-May-22 19:17N 58°57' W 003°18'16 6.2
2018-May-22 16:45N 58°43' W 003°30'1516.9
2018-May-22 15:50N 58°57' W 003°17'1 0.3
2018-May-22 13:40N 58°58' W 003°18'1 5.5
2018-May-22 13:30N 58°57' W 003°18'816.0
2018-May-22 12:58N 58°50' W 003°29'14 8.3
2018-May-22 11:19N 58°37' W 003°32'616.8
2018-May-22 10:57N 58°43' W 003°30'1318.6
2018-May-22 10:15N 58°55' W 003°25'417.1
2018-May-22 10:00N 58°57' W 003°17'1 0.6
2018-May-22 08:59N 58°57' W 003°18'914.6
2018-May-22 08:22N 58°50' W 003°28'14 8.6
2018-May-22 06:45N 58°37' W 003°32'2217.4
2018-May-22 05:31N 58°57' W 003°18'014.0
2018-May-22 05:29N 58°57' W 003°17'1 0.1
2018-May-21 19:40N 58°58' W 003°18'2 7.4
2018-May-21 19:26N 58°57' W 003°21'817.1
2018-May-21 18:57N 58°50' W 003°30'7 2.9
2018-May-21 16:42N 58°43' W 003°30'719.7
2018-May-21 16:20N 58°50' W 003°28'817.2
2018-May-21 15:52N 58°57' W 003°19'1 0.5
2018-May-21 13:38N 58°58' W 003°18'1 6.4
2018-May-21 13:30N 58°57' W 003°18'915.5
2018-May-21 12:56N 58°50' W 003°29'8 4.0
2018-May-21 11:03N 58°42' W 003°30'117.2
2018-May-21 11:00N 58°43' W 003°30'1516.5
2018-May-21 10:07N 58°57' W 003°19'1 9.4
2018-May-21 10:00N 58°57' W 003°18'0 0.2
2018-May-21 09:07N 58°58' W 003°18'1 7.5
2018-May-21 08:59N 58°57' W 003°19'816.2
2018-May-21 08:29N 58°50' W 003°28'9 4.7
2018-May-21 06:33N 58°41' W 003°31'119.4
2018-May-21 06:30N 58°42' W 003°31'1318.5
2018-May-21 05:47N 58°55' W 003°26'515.7
2018-May-21 05:29N 58°57' W 003°18'0 0.0
2018-May-20 19:17N 58°58' W 003°18'512.4
2018-May-20 18:54N 58°55' W 003°26'1910.1
2018-May-20 17:02N 58°37' W 003°32'516.4
2018-May-20 16:46N 58°41' W 003°31'818.3
2018-May-20 16:19N 58°49' W 003°29'916.6
2018-May-20 15:46N 58°57' W 003°19'1 1.1
2018-May-20 14:42N 58°58' W 003°18'311.8
2018-May-20 14:29N 58°56' W 003°14'611.5
2018-May-20 14:00N 58°50' W 003°11'4 7.6
2018-May-20 13:30N 58°46' W 003°11'914.1
2018-May-20 12:53N 58°51' W 003°25'611.2
2018-May-20 12:20N 58°57' W 003°19'1 0.9
2018-May-20 11:12N 58°58' W 003°18'514.2
2018-May-20 10:52N 58°55' W 003°26'14 7.8
2018-May-20 09:01N 58°41' W 003°31'119.5
2018-May-20 08:58N 58°42' W 003°30'1319.2
2018-May-20 08:18N 58°55' W 003°26'516.8
2018-May-20 08:00N 58°57' W 003°17'1 0.1
2018-May-19 19:18N 58°58' W 003°18'512.2
2018-May-19 18:55N 58°55' W 003°26'819.2
2018-May-19 18:30N 58°47' W 003°29'1112.8
2018-May-19 17:39N 58°37' W 003°32'0 0.0
2018-May-19 17:27N 58°37' W 003°32'4 7.4
2018-May-19 16:51N 58°41' W 003°31'818.6
2018-May-19 16:27N 58°48' W 003°29'716.8
2018-May-19 16:01N 58°55' W 003°25'4 1.9
2018-May-19 13:39N 58°58' W 003°18'913.3
2018-May-19 12:57N 58°50' W 003°28'9 5.2
2018-May-19 11:09N 58°41' W 003°31'418.8
2018-May-19 10:58N 58°45' W 003°30'1019.6
2018-May-19 10:26N 58°55' W 003°26'5 3.5
2018-May-19 08:57N 58°58' W 003°18'914.6
2018-May-19 08:19N 58°50' W 003°28'9 5.5
2018-May-19 06:39N 58°41' W 003°31'319.4
2018-May-19 06:29N 58°44' W 003°30'1118.8
2018-May-19 05:55N 58°55' W 003°26'5 0.5
2018-May-18 19:19N 58°58' W 003°18'514.4
2018-May-18 18:57N 58°55' W 003°26'18 9.9
2018-May-18 17:07N 58°37' W 003°32'519.2
2018-May-18 16:52N 58°41' W 003°33'819.1
2018-May-18 16:29N 58°49' W 003°29'1016.9
2018-May-18 15:53N 58°57' W 003°18'1 0.1
2018-May-18 09:06N 58°58' W 003°18'1 8.4
2018-May-18 09:00N 58°57' W 003°17'916.6
2018-May-18 08:28N 58°50' W 003°28'14 9.3
2018-May-18 07:00N 58°37' W 003°32'1417.5
2018-May-18 06:14N 58°50' W 003°29'519.7
2018-May-18 05:58N 58°55' W 003°26'5 0.5
2018-May-17 19:14N 58°58' W 003°18'513.2
2018-May-17 18:54N 58°55' W 003°25'15 7.3
2018-May-17 16:51N 58°41' W 003°31'818.9
2018-May-17 16:25N 58°49' W 003°29'917.3
2018-May-17 15:52N 58°57' W 003°20'1 0.2
2018-May-17 09:00N 58°58' W 003°18'2210.4
2018-May-17 06:52N 58°37' W 003°32'1819.4
2018-May-17 05:56N 58°54' W 003°26'5 0.5
2018-May-16 19:14N 58°58' W 003°18'514.2
2018-May-16 18:55N 58°55' W 003°26'13 6.2
2018-May-16 16:49N 58°42' W 003°31'718.6
2018-May-16 16:26N 58°49' W 003°29'917.7
2018-May-16 15:57N 58°57' W 003°19'  
Track history (hours):
 
Tides and Currents Weather Stations Pressure Air Temp Water Temp Dewpoint Dewpoint Depression Visibility Wind Speed Wind Dir Waves Ship Positions

Hamnavoe

Operator: NorthLink Orkey & Shetland Ferries Ltd

Last reported at 2018-May-26 09:59 UTC. Time now 2018-May-26 10:05 UTC.
Position N 58°57' W 003°17'.

Length 112 m; draft 4.2 m.

Type: Ship. MMSI: 235449000.

Date/timePositionNaut miles runAvg speedWind from/ knotsBaromVisibWave heightAir tempDewpointWater temp
2018-May-26 09:59N 58°57' W 003°17'0 0.0
2018-May-26 09:00N 58°57' W 003°17'915.5
2018-May-26 08:25N 58°50' W 003°28'14 9.2
2018-May-26 06:56N 58°37' W 003°32'818.5
2018-May-26 06:30N 58°44' W 003°30'15 1.3
2018-May-25 19:16N 58°57' W 003°18'514.1
2018-May-25 18:57N 58°55' W 003°26'19 9.9
2018-May-25 17:01N 58°37' W 003°32'0 6.4
2018-May-25 17:00N 58°37' W 003°32'1219.2
2018-May-25 16:22N 58°49' W 003°29'917.6
2018-May-25 15:50N 58°57' W 003°19'1 0.5
2018-May-25 13:33N 58°58' W 003°18'1 9.5
2018-May-25 13:29N 58°57' W 003°17'914.8
2018-May-25 12:53N 58°50' W 003°28'14 8.6
2018-May-25 11:17N 58°37' W 003°32'518.5
2018-May-25 11:01N 58°42' W 003°30'1617.2
2018-May-25 10:05N 58°57' W 003°20'116.4
2018-May-25 10:00N 58°57' W 003°17'0 0.5
2018-May-25 09:08N 58°58' W 003°18'1 6.9
2018-May-25 09:00N 58°57' W 003°19'18 7.8
2018-May-25 06:41N 58°40' W 003°31'519.3
2018-May-25 06:27N 58°44' W 003°30'1417.6
2018-May-25 05:40N 58°57' W 003°19'1 0.1
2018-May-24 19:19N 58°58' W 003°18'513.5
2018-May-24 18:57N 58°55' W 003°26'1118.8
2018-May-24 18:20N 58°44' W 003°29'619.0
2018-May-24 18:00N 58°37' W 003°31'1 1.9
2018-May-24 17:30N 58°37' W 003°32'3 5.5
2018-May-24 16:54N 58°40' W 003°31'819.1
2018-May-24 16:30N 58°48' W 003°29'917.9
2018-May-24 15:59N 58°56' W 003°23'3 1.3
2018-May-24 13:37N 58°58' W 003°18'413.4
2018-May-24 13:19N 58°56' W 003°25'4 0.9
2018-May-24 08:59N 58°57' W 003°17'914.5
2018-May-24 08:23N 58°50' W 003°28'1414.1
2018-May-24 07:23N 58°37' W 003°32'0 0.2
2018-May-24 06:53N 58°37' W 003°32'1217.8
2018-May-24 06:11N 58°49' W 003°29'619.0
2018-May-24 05:53N 58°54' W 003°27'614.8
2018-May-24 05:30N 58°57' W 003°18'0 0.0
2018-May-23 19:24N 58°58' W 003°18'22 9.7
2018-May-23 17:06N 58°37' W 003°32'316.7
2018-May-23 16:55N 58°40' W 003°31'1817.2
2018-May-23 15:52N 58°57' W 003°19'1 0.4
2018-May-23 13:30N 58°58' W 003°18'914.6
2018-May-23 12:52N 58°50' W 003°28'9 5.3
2018-May-23 11:07N 58°41' W 003°31'219.7
2018-May-23 11:00N 58°43' W 003°30'1516.6
2018-May-23 10:06N 58°57' W 003°18'1 7.8
2018-May-23 10:00N 58°58' W 003°18'0 0.0
2018-May-23 08:58N 58°58' W 003°18'17 7.2
2018-May-23 06:33N 58°41' W 003°31'119.3
2018-May-23 06:30N 58°43' W 003°30'1219.2
2018-May-23 05:52N 58°54' W 003°27'515.0
2018-May-23 05:30N 58°57' W 003°18'0 0.0
2018-May-22 19:17N 58°57' W 003°18'16 6.2
2018-May-22 16:45N 58°43' W 003°30'1516.9
2018-May-22 15:50N 58°57' W 003°17'1 0.3
2018-May-22 13:40N 58°58' W 003°18'1 5.5
2018-May-22 13:30N 58°57' W 003°18'816.0
2018-May-22 12:58N 58°50' W 003°29'14 8.3
2018-May-22 11:19N 58°37' W 003°32'616.8
2018-May-22 10:57N 58°43' W 003°30'1318.6
2018-May-22 10:15N 58°55' W 003°25'417.1
2018-May-22 10:00N 58°57' W 003°17'1 0.6
2018-May-22 08:59N 58°57' W 003°18'914.6
2018-May-22 08:22N 58°50' W 003°28'14 8.6
2018-May-22 06:45N 58°37' W 003°32'2217.4
2018-May-22 05:31N 58°57' W 003°18'014.0
2018-May-22 05:29N 58°57' W 003°17'1 0.1
2018-May-21 19:40N 58°58' W 003°18'2 7.4
2018-May-21 19:26N 58°57' W 003°21'817.1
2018-May-21 18:57N 58°50' W 003°30'7 2.9
2018-May-21 16:42N 58°43' W 003°30'719.7
2018-May-21 16:20N 58°50' W 003°28'817.2
2018-May-21 15:52N 58°57' W 003°19'1 0.5
2018-May-21 13:38N 58°58' W 003°18'1 6.4
2018-May-21 13:30N 58°57' W 003°18'915.5
2018-May-21 12:56N 58°50' W 003°29'8 4.0
2018-May-21 11:03N 58°42' W 003°30'117.2
2018-May-21 11:00N 58°43' W 003°30'1516.5
2018-May-21 10:07N 58°57' W 003°19'1 9.4
2018-May-21 10:00N 58°57' W 003°18'0 0.2
2018-May-21 09:07N 58°58' W 003°18'1 7.5
2018-May-21 08:59N 58°57' W 003°19'816.2
2018-May-21 08:29N 58°50' W 003°28'9 4.7
2018-May-21 06:33N 58°41' W 003°31'119.4
2018-May-21 06:30N 58°42' W 003°31'1318.5
2018-May-21 05:47N 58°55' W 003°26'515.7
2018-May-21 05:29N 58°57' W 003°18'0 0.0
2018-May-20 19:17N 58°58' W 003°18'512.4
2018-May-20 18:54N 58°55' W 003°26'1910.1
2018-May-20 17:02N 58°37' W 003°32'516.4
2018-May-20 16:46N 58°41' W 003°31'818.3
2018-May-20 16:19N 58°49' W 003°29'916.6
2018-May-20 15:46N 58°57' W 003°19'1 1.1
2018-May-20 14:42N 58°58' W 003°18'311.8
2018-May-20 14:29N 58°56' W 003°14'611.5
2018-May-20 14:00N 58°50' W 003°11'4 7.6
2018-May-20 13:30N 58°46' W 003°11'914.1
2018-May-20 12:53N 58°51' W 003°25'611.2
2018-May-20 12:20N 58°57' W 003°19'1 0.9
2018-May-20 11:12N 58°58' W 003°18'514.2
2018-May-20 10:52N 58°55' W 003°26'14 7.8
2018-May-20 09:01N 58°41' W 003°31'119.5
2018-May-20 08:58N 58°42' W 003°30'1319.2
2018-May-20 08:18N 58°55' W 003°26'516.8
2018-May-20 08:00N 58°57' W 003°17'1 0.1
2018-May-19 19:18N 58°58' W 003°18'512.2
2018-May-19 18:55N 58°55' W 003°26'819.2
2018-May-19 18:30N 58°47' W 003°29'1112.8
2018-May-19 17:39N 58°37' W 003°32'0 0.0
2018-May-19 17:27N 58°37' W 003°32'4 7.4
2018-May-19 16:51N 58°41' W 003°31'818.6
2018-May-19 16:27N 58°48' W 003°29'716.8
2018-May-19 16:01N 58°55' W 003°25'4 1.9
2018-May-19 13:39N 58°58' W 003°18'913.3
2018-May-19 12:57N 58°50' W 003°28'9 5.2
2018-May-19 11:09N 58°41' W 003°31'418.8
2018-May-19 10:58N 58°45' W 003°30'1019.6
2018-May-19 10:26N 58°55' W 003°26'5 3.5
2018-May-19 08:57N 58°58' W 003°18'914.6
2018-May-19 08:19N 58°50' W 003°28'9 5.5
2018-May-19 06:39N 58°41' W 003°31'319.4
2018-May-19 06:29N 58°44' W 003°30'1118.8
2018-May-19 05:55N 58°55' W 003°26'5 0.5
2018-May-18 19:19N 58°58' W 003°18'514.4
2018-May-18 18:57N 58°55' W 003°26'18 9.9
2018-May-18 17:07N 58°37' W 003°32'519.2
2018-May-18 16:52N 58°41' W 003°33'819.1
2018-May-18 16:29N 58°49' W 003°29'1016.9
2018-May-18 15:53N 58°57' W 003°18'1 0.1
2018-May-18 09:06N 58°58' W 003°18'1 8.4
2018-May-18 09:00N 58°57' W 003°17'916.6
2018-May-18 08:28N 58°50' W 003°28'14 9.3
2018-May-18 07:00N 58°37' W 003°32'1417.5
2018-May-18 06:14N 58°50' W 003°29'519.7
2018-May-18 05:58N 58°55' W 003°26'5 0.5
2018-May-17 19:14N 58°58' W 003°18'513.2
2018-May-17 18:54N 58°55' W 003°25'15 7.3
2018-May-17 16:51N 58°41' W 003°31'818.9
2018-May-17 16:25N 58°49' W 003°29'917.3
2018-May-17 15:52N 58°57' W 003°20'1 0.2
2018-May-17 09:00N 58°58' W 003°18'2210.4
2018-May-17 06:52N 58°37' W 003°32'1819.4
2018-May-17 05:56N 58°54' W 003°26'5 0.5
2018-May-16 19:14N 58°58' W 003°18'514.2
2018-May-16 18:55N 58°55' W 003°26'13 6.2
2018-May-16 16:49N 58°42' W 003°31'718.6
2018-May-16 16:26N 58°49' W 003°29'917.7
2018-May-16 15:57N 58°57' W 003°19'  

Dump ship's entire track history